Time;durP1;ratioP1;P1;durP2;ratioP2;P2;SDS_P1;SDS_P2;PMS_P1;PMS_P2;Temp;Humidity;BMP_temperature;BMP_pressure;BME280_temperature;BME280_humidity;BME280_pressure;Samples;Min_cycle;Max_cycle;Signal;HPM_P1;HPM_P2
2023/04/05 00:01:00;;;;;;;15.30;9.23;;;;;;;1.84;100.00;102288.97;5228806;28;20132;-67
2023/04/05 00:03:31;;;;;;;15.35;8.95;;;;;;;1.83;100.00;102295.09;5229771;28;20025;-68
2023/04/05 00:06:04;;;;;;;14.65;9.13;;;;;;;1.83;100.00;102307.41;5228429;28;20040;-67
2023/04/05 00:08:36;;;;;;;14.73;9.13;;;;;;;1.76;100.00;102302.25;5229966;28;20029;-67
2023/04/05 00:11:07;;;;;;;14.95;8.60;;;;;;;1.73;100.00;102296.16;5231837;28;20467;-67
2023/04/05 00:13:38;;;;;;;16.42;9.38;;;;;;;1.67;100.00;102307.66;5228946;28;21020;-68
2023/04/05 00:16:10;;;;;;;12.98;8.48;;;;;;;1.76;100.00;102306.63;5233691;28;20032;-68
2023/04/05 00:18:48;;;;;;;15.35;8.88;;;;;;;1.72;100.00;102300.53;5233515;28;20021;-68
2023/04/05 00:21:21;;;;;;;16.50;8.95;;;;;;;1.75;100.00;102297.84;5229568;28;20032;-67
2023/04/05 00:23:56;;;;;;;15.00;8.73;;;;;;;1.72;100.00;102294.41;5231042;28;20018;-67
2023/04/05 00:26:27;;;;;;;14.88;8.48;;;;;;;1.69;100.00;102294.47;5231748;28;20044;-67
2023/04/05 00:28:58;;;;;;;14.75;8.70;;;;;;;1.66;100.00;102298.00;5224547;28;20383;-67
2023/04/05 00:31:30;;;;;;;13.88;9.13;;;;;;;1.65;100.00;102295.38;5226410;28;20036;-68
2023/04/05 00:34:01;;;;;;;12.95;8.48;;;;;;;1.63;100.00;102281.41;5225720;28;20037;-67
2023/04/05 00:36:34;;;;;;;13.65;8.40;;;;;;;1.58;100.00;102286.75;5232021;28;20029;-67
2023/04/05 00:39:06;;;;;;;14.88;8.57;;;;;;;1.65;100.00;102283.13;5226968;28;20099;-67
2023/04/05 00:41:37;;;;;;;14.23;8.65;;;;;;;1.59;100.00;102284.97;5226389;28;20037;-67
2023/04/05 00:44:11;;;;;;;15.98;8.23;;;;;;;1.50;100.00;102278.97;5225425;28;20079;-68
2023/04/05 00:46:43;;;;;;;17.83;8.88;;;;;;;1.42;100.00;102282.59;5222656;28;20036;-67
2023/04/05 00:49:15;;;;;;;14.73;8.20;;;;;;;1.34;100.00;102272.19;5225953;28;20037;-68
2023/04/05 00:51:47;;;;;;;13.55;7.65;;;;;;;1.27;100.00;102279.31;5226463;28;20560;-67
2023/04/05 00:54:18;;;;;;;13.18;7.82;;;;;;;1.29;100.00;102271.41;5224651;28;20040;-68
2023/04/05 00:56:51;;;;;;;15.07;8.02;;;;;;;1.24;100.00;102271.47;5223376;28;20396;-67
2023/04/05 00:59:23;;;;;;;13.27;8.15;;;;;;;1.16;100.00;102271.56;5223677;28;20048;-68
2023/04/05 01:02:12;;;;;;;15.13;7.95;;;;;;;1.17;100.00;102265.44;5225413;28;20050;-67
2023/04/05 01:04:48;;;;;;;15.43;8.23;;;;;;;1.18;100.00;102276.81;5226196;28;20087;-67
2023/04/05 01:07:49;;;;;;;11.88;7.93;;;;;;;1.12;100.00;102282.16;5226318;28;20068;-67
2023/04/05 01:10:27;;;;;;;13.85;7.68;;;;;;;1.05;100.00;102275.25;5229088;28;20511;-67
2023/04/05 01:12:59;;;;;;;12.80;7.97;;;;;;;1.01;100.00;102278.81;5229764;28;20073;-67
2023/04/05 01:15:31;;;;;;;14.52;7.75;;;;;;;1.02;100.00;102276.16;5228750;28;20040;-68
2023/04/05 01:18:03;;;;;;;11.30;7.35;;;;;;;0.95;100.00;102275.38;5237730;28;20025;-67
2023/04/05 01:20:39;;;;;;;13.20;7.70;;;;;;;0.90;100.00;102284.19;5227363;28;20029;-67
2023/04/05 01:23:36;;;;;;;14.77;8.38;;;;;;;0.88;100.00;102276.38;5229666;28;20056;-67
2023/04/05 01:26:45;;;;;;;13.13;8.02;;;;;;;0.88;100.00;102268.47;5231355;28;20033;-68
2023/04/05 01:29:52;;;;;;;13.57;8.23;;;;;;;0.81;100.00;102263.31;5228096;28;20464;-67
2023/04/05 01:32:38;;;;;;;13.63;8.95;;;;;;;0.80;100.00;102265.06;5233928;28;20452;-67
2023/04/05 01:35:31;;;;;;;15.10;9.10;;;;;;;0.73;100.00;102268.66;5234980;28;20025;-68
2023/04/05 01:38:04;;;;;;;13.10;8.25;;;;;;;0.72;100.00;102262.53;5229848;28;20040;-68
2023/04/05 01:40:37;;;;;;;14.40;8.60;;;;;;;0.76;100.00;102255.47;5230420;28;20033;-67
2023/04/05 01:43:15;;;;;;;15.13;8.63;;;;;;;0.64;100.00;102261.75;5229879;28;20086;-67
2023/04/05 01:45:47;;;;;;;14.75;8.98;;;;;;;0.60;100.00;102259.22;5230294;28;20112;-67
2023/04/05 01:48:19;;;;;;;15.30;8.73;;;;;;;0.52;100.00;102257.53;5231506;28;20391;-67
2023/04/05 01:50:50;;;;;;;14.60;8.85;;;;;;;0.48;100.00;102254.94;5231929;28;20414;-67
2023/04/05 01:53:21;;;;;;;15.57;8.85;;;;;;;0.48;100.00;102250.59;5233730;28;20517;-68
2023/04/05 01:55:53;;;;;;;16.30;8.57;;;;;;;0.39;100.00;102248.06;5225564;28;20647;-67
2023/04/05 01:58:24;;;;;;;13.32;8.13;;;;;;;0.38;100.00;102246.31;5229062;28;20065;-67
2023/04/05 02:00:56;;;;;;;16.38;8.38;;;;;;;0.33;100.00;102256.00;5231279;28;20053;-67
2023/04/05 02:03:28;;;;;;;15.20;8.55;;;;;;;0.32;100.00;102259.50;5227226;28;20033;-67
2023/04/05 02:06:00;;;;;;;17.15;8.98;;;;;;;0.35;100.00;102244.59;5230549;28;20044;-68
2023/04/05 02:08:31;;;;;;;15.27;8.75;;;;;;;0.26;100.00;102244.69;5229991;28;20021;-67
2023/04/05 02:11:02;;;;;;;15.45;9.15;;;;;;;0.34;100.00;102239.34;5231128;28;20029;-67
2023/04/05 02:13:34;;;;;;;18.35;8.18;;;;;;;0.22;100.00;102240.38;5227987;28;20032;-68
2023/04/05 02:16:05;;;;;;;14.48;8.13;;;;;;;0.19;100.00;102237.75;5227894;28;20048;-67
2023/04/05 02:18:37;;;;;;;14.82;8.23;;;;;;;0.16;100.00;102243.06;5229120;28;20030;-68
2023/04/05 02:21:09;;;;;;;12.48;8.13;;;;;;;0.13;100.00;102238.69;5225982;28;20041;-68
2023/04/05 02:23:41;;;;;;;16.40;8.90;;;;;;;0.25;100.00;102242.06;5226113;28;20132;-67
2023/04/05 02:26:12;;;;;;;19.88;9.82;;;;;;;0.15;100.00;102239.59;5227992;28;20743;-68
2023/04/05 02:28:44;;;;;;;16.17;8.45;;;;;;;0.10;100.00;102238.75;5225901;28;20191;-67
2023/04/05 02:31:15;;;;;;;13.65;7.97;;;;;;;0.07;100.00;102233.53;5227603;28;20533;-67
2023/04/05 02:33:48;;;;;;;14.88;7.75;;;;;;;0.07;100.00;102235.28;5225145;28;20030;-67
2023/04/05 02:36:21;;;;;;;14.98;8.82;;;;;;;0.04;100.00;102232.69;5226628;28;20040;-68
2023/04/05 02:38:52;;;;;;;14.43;8.45;;;;;;;-0.01;100.00;102232.75;5224169;28;20052;-68
2023/04/05 02:41:24;;;;;;;15.52;8.48;;;;;;;-0.05;100.00;102234.53;5224506;28;20092;-67
2023/04/05 02:43:56;;;;;;;15.60;8.48;;;;;;;-0.07;100.00;102233.66;5224974;28;20140;-67
2023/04/05 02:46:27;;;;;;;14.57;8.52;;;;;;;-0.10;100.00;102233.69;5223525;28;20033;-68
2023/04/05 02:48:59;;;;;;;13.82;8.40;;;;;;;-0.12;100.00;102235.47;5226758;28;20073;-67
2023/04/05 02:51:33;;;;;;;16.15;9.07;;;;;;;-0.13;100.00;102227.63;5225078;28;20041;-68
2023/04/05 02:54:05;;;;;;;14.68;8.68;;;;;;;-0.11;100.00;102233.72;5223492;28;20037;-68
2023/04/05 02:56:36;;;;;;;16.15;9.10;;;;;;;-0.14;100.00;102231.97;5226444;28;20490;-68
2023/04/05 02:59:07;;;;;;;15.70;9.05;;;;;;;-0.17;100.00;102229.41;5240357;28;20029;-68
2023/04/05 03:01:42;;;;;;;15.77;8.35;;;;;;;-0.21;100.00;102225.06;5228032;28;20396;-68
2023/04/05 03:04:16;;;;;;;15.05;9.02;;;;;;;-0.27;100.00;102225.09;5226743;28;20021;-68
2023/04/05 03:06:48;;;;;;;14.60;8.52;;;;;;;-0.25;100.00;102221.63;5225156;28;20025;-68
2023/04/05 03:09:21;;;;;;;17.25;9.32;;;;;;;-0.29;100.00;102217.28;5225398;28;20060;-67
2023/04/05 03:11:52;;;;;;;15.90;8.55;;;;;;;-0.29;100.00;102225.16;5227067;28;20021;-68
2023/04/05 03:14:24;;;;;;;14.85;9.32;;;;;;;-0.25;100.00;102216.38;5227912;28;20029;-68
2023/04/05 03:16:56;;;;;;;17.98;9.10;;;;;;;-0.30;100.00;102212.91;5224332;28;20053;-68
2023/04/05 03:19:27;;;;;;;15.98;9.27;;;;;;;-0.33;100.00;102209.44;5227240;28;20021;-67
2023/04/05 03:21:59;;;;;;;13.90;9.20;;;;;;;-0.37;100.00;102216.47;5227351;28;20510;-67
2023/04/05 03:24:30;;;;;;;15.90;9.32;;;;;;;-0.40;100.00;102200.78;5222152;28;20042;-68
2023/04/05 03:27:04;;;;;;;17.35;9.82;;;;;;;-0.44;100.00;102202.53;5236965;28;20381;-68
2023/04/05 03:29:36;;;;;;;14.27;9.27;;;;;;;-0.45;100.00;102195.56;5228096;28;20060;-67
2023/04/05 03:32:10;;;;;;;16.15;9.32;;;;;;;-0.42;100.00;102197.28;5224986;28;20092;-68
2023/04/05 03:34:42;;;;;;;16.90;9.82;;;;;;;-0.49;100.00;102206.94;5225515;28;20033;-67
2023/04/05 03:37:13;;;;;;;17.75;9.50;;;;;;;-0.52;100.00;102204.34;5221835;28;20061;-67
2023/04/05 03:39:45;;;;;;;17.13;9.35;;;;;;;-0.54;100.00;102187.75;5225010;28;20029;-68
2023/04/05 03:42:16;;;;;;;16.70;9.65;;;;;;;-0.52;100.00;102191.22;5225319;28;20060;-67
2023/04/05 03:44:51;;;;;;;16.98;9.38;;;;;;;-0.57;100.00;102197.44;5225895;28;20017;-68
2023/04/05 03:47:23;;;;;;;19.13;9.70;;;;;;;-0.61;100.00;102201.81;5225464;28;20029;-68
2023/04/05 03:49:55;;;;;;;16.63;10.20;;;;;;;-0.66;100.00;102196.59;5225280;28;20036;-67
2023/04/05 03:52:26;;;;;;;19.20;10.75;;;;;;;-0.68;100.00;102190.50;5225781;28;20025;-67
2023/04/05 03:54:57;;;;;;;18.85;10.35;;;;;;;-0.72;100.00;102194.03;5225432;28;20048;-67
2023/04/05 03:57:29;;;;;;;19.38;12.23;;;;;;;-0.74;100.00;102197.56;5229336;28;20033;-67
2023/04/05 04:00:05;;;;;;;17.45;10.50;;;;;;;-0.75;100.00;102194.03;5226646;28;20037;-67
2023/04/05 04:02:41;;;;;;;17.33;10.57;;;;;;;-0.78;100.00;102181.00;5224379;28;20036;-68
2023/04/05 04:05:14;;;;;;;18.92;10.98;;;;;;;-0.80;100.00;102177.50;5224812;28;20034;-67
2023/04/05 04:07:46;;;;;;;18.58;11.10;;;;;;;-0.85;100.00;102172.28;5225571;28;20029;-67
2023/04/05 04:10:17;;;;;;;16.92;10.20;;;;;;;-0.85;100.00;102182.78;5223880;28;20037;-67
2023/04/05 04:12:49;;;;;;;16.75;10.25;;;;;;;-0.88;100.00;102174.94;5223811;28;20029;-67
2023/04/05 04:15:20;;;;;;;14.38;9.77;;;;;;;-0.90;100.00;102173.19;5226222;28;20690;-67
2023/04/05 04:17:51;;;;;;;16.77;9.82;;;;;;;-0.93;100.00;102178.47;5225977;28;20028;-67
2023/04/05 04:20:23;;;;;;;16.55;10.80;;;;;;;-0.96;100.00;102176.72;5223219;28;20029;-67
2023/04/05 04:22:56;;;;;;;17.65;10.38;;;;;;;-0.96;100.00;102176.72;5224953;28;20461;-67
2023/04/05 04:25:29;;;;;;;18.98;10.90;;;;;;;-0.95;100.00;102177.63;5226866;28;20120;-67
2023/04/05 04:28:03;;;;;;;16.30;10.73;;;;;;;-0.99;100.00;102180.25;5224918;28;20080;-67
2023/04/05 04:30:35;;;;;;;17.67;10.75;;;;;;;-1.02;100.00;102182.91;5225095;28;20553;-67
2023/04/05 04:33:07;;;;;;;18.23;10.65;;;;;;;-1.01;100.00;102175.91;5226190;28;20029;-67
2023/04/05 04:35:38;;;;;;;18.80;10.20;;;;;;;-1.05;100.00;102182.06;5223641;28;20029;-67
2023/04/05 04:38:17;;;;;;;18.50;10.43;;;;;;;-1.08;100.00;102175.06;5233038;28;20021;-67
2023/04/05 04:40:52;;;;;;;15.55;9.93;;;;;;;-1.09;100.00;102175.97;5224455;28;20025;-67
2023/04/05 04:43:26;;;;;;;17.00;10.52;;;;;;;-1.10;100.00;102184.69;5221710;28;20082;-67
2023/04/05 04:45:58;;;;;;;19.33;10.43;;;;;;;-1.13;100.00;102181.22;5227914;28;20021;-67
2023/04/05 04:48:32;;;;;;;16.00;10.60;;;;;;;-1.15;100.00;102178.63;5221041;28;20431;-67
2023/04/05 04:51:03;;;;;;;19.83;10.85;;;;;;;-1.15;100.00;102172.50;5225984;28;20041;-67
2023/04/05 04:53:34;;;;;;;20.40;10.98;;;;;;;-1.13;100.00;102189.06;5220869;28;20033;-67
2023/04/05 04:56:07;;;;;;;18.48;11.40;;;;;;;-1.16;100.00;102183.88;5224107;28;20116;-67
2023/04/05 04:58:39;;;;;;;19.02;11.20;;;;;;;-1.19;100.00;102187.34;5227712;28;20462;-67
2023/04/05 05:01:10;;;;;;;19.58;11.07;;;;;;;-1.17;100.00;102174.25;5222730;28;20068;-67
2023/04/05 05:03:42;;;;;;;18.92;11.23;;;;;;;-1.22;100.00;102169.94;5229045;28;20105;-67
2023/04/05 05:06:23;;;;;;;19.80;11.70;;;;;;;-1.15;100.00;102180.38;5225092;28;20033;-67
2023/04/05 05:08:55;;;;;;;23.20;11.00;;;;;;;-1.21;100.00;102182.16;5227183;28;20445;-67
2023/04/05 05:11:27;;;;;;;21.10;12.60;;;;;;;-1.14;100.00;102172.50;5227177;28;20084;-67
2023/04/05 05:13:59;;;;;;;20.30;11.00;;;;;;;-1.19;100.00;102179.50;5231520;28;20055;-67
2023/04/05 05:16:30;;;;;;;17.63;11.27;;;;;;;-1.20;100.00;102181.25;5225265;28;20026;-67
2023/04/05 05:19:02;;;;;;;19.73;12.30;;;;;;;-1.23;100.00;102172.56;5225542;28;20025;-66
2023/04/05 05:21:33;;;;;;;17.07;10.80;;;;;;;-1.23;100.00;102178.69;5225793;28;20464;-67
2023/04/05 05:24:07;;;;;;;20.45;11.70;;;;;;;-1.18;100.00;102176.03;5222957;28;20033;-66
2023/04/05 05:26:38;;;;;;;17.63;10.63;;;;;;;-1.18;100.00;102181.25;5236005;28;20029;-67
2023/04/05 05:29:10;;;;;;;17.80;10.37;;;;;;;-1.23;100.00;102175.16;5239611;28;20033;-67
2023/04/05 05:31:41;;;;;;;20.47;10.80;;;;;;;-1.22;100.00;102169.94;5221802;28;20095;-67
2023/04/05 05:34:12;;;;;;;17.08;10.55;;;;;;;-1.21;100.00;102168.19;5222781;28;20057;-67
2023/04/05 05:36:44;;;;;;;18.77;10.77;;;;;;;-1.19;100.00;102166.41;5229433;28;20036;-67
2023/04/05 05:39:15;;;;;;;17.95;10.73;;;;;;;-1.17;100.00;102169.88;5223578;28;20029;-68
2023/04/05 05:41:47;;;;;;;19.50;11.67;;;;;;;-1.18;100.00;102176.03;5229361;28;20029;-66
2023/04/05 05:44:18;;;;;;;17.88;11.27;;;;;;;-1.13;100.00;102166.41;5219718;28;20088;-66
2023/04/05 05:46:49;;;;;;;19.98;12.20;;;;;;;-1.08;100.00;102167.22;5222699;28;20451;-67
2023/04/05 05:49:22;;;;;;;20.17;12.60;;;;;;;-1.05;100.00;102169.81;5236984;28;20033;-66
2023/04/05 05:51:53;;;;;;;20.77;11.52;;;;;;;-1.02;100.00;102166.31;5221752;28;20033;-66
2023/04/05 05:54:25;;;;;;;22.30;12.03;;;;;;;-1.03;100.00;102173.31;5223517;28;20041;-66
2023/04/05 05:56:57;;;;;;;22.48;12.30;;;;;;;-0.97;100.00;102176.78;5234405;28;20017;-66
2023/04/05 05:59:29;;;;;;;20.88;12.50;;;;;;;-0.99;100.00;102179.41;5234468;28;20033;-66
2023/04/05 06:02:00;;;;;;;23.63;11.95;;;;;;;-0.98;100.00;102178.50;5226943;28;20415;-67
2023/04/05 06:04:33;;;;;;;20.52;11.63;;;;;;;-0.96;100.00;102174.13;5225443;28;20168;-67
2023/04/05 06:07:04;;;;;;;20.08;12.57;;;;;;;-0.85;100.00;102176.66;5236903;28;20049;-66
2023/04/05 06:09:36;;;;;;;20.95;13.25;;;;;;;-0.76;100.00;102176.59;5237506;28;20441;-67
2023/04/05 06:12:07;;;;;;;23.93;15.07;;;;;;;-0.74;100.00;102174.84;5253380;28;20144;-66
2023/04/05 06:14:38;;;;;;;22.17;14.35;;;;;;;-0.67;100.00;102178.25;5236397;28;20112;-66
2023/04/05 06:17:10;;;;;;;23.92;14.80;;;;;;;-0.62;100.00;102179.97;5238249;28;20385;-67
2023/04/05 06:19:41;;;;;;;22.83;15.52;;;;;;;-0.44;100.00;102192.06;5232145;28;20037;-67
2023/04/05 06:22:13;;;;;;;21.67;14.68;;;;;;;-0.44;100.00;102194.69;5233375;28;20427;-67
2023/04/05 06:24:44;;;;;;;21.15;14.38;;;;;;;-0.36;100.00;102194.63;5233847;28;20398;-67
2023/04/05 06:27:16;;;;;;;20.98;14.43;;;;;;;-0.41;100.00;102193.78;5244826;28;20865;-67
2023/04/05 06:29:47;;;;;;;23.85;13.75;;;;;;;-0.35;100.00;102182.34;5236183;28;20029;-67
2023/04/05 06:32:19;;;;;;;23.20;14.45;;;;;;;-0.29;100.00;102179.66;5237011;28;20446;-67
2023/04/05 06:34:52;;;;;;;21.33;13.48;;;;;;;-0.14;100.00;102178.66;5234845;28;20105;-67
2023/04/05 06:37:23;;;;;;;20.48;13.60;;;;;;;-0.12;100.00;102185.63;5237308;28;20033;-67
2023/04/05 06:39:55;;;;;;;23.00;14.20;;;;;;;-0.11;100.00;102186.50;5233236;28;20037;-68
2023/04/05 06:42:26;;;;;;;19.40;13.48;;;;;;;-0.05;100.00;102183.81;5229342;28;20388;-67
2023/04/05 06:44:58;;;;;;;19.77;13.50;;;;;;;-0.01;100.00;102185.50;5230934;28;20116;-67
2023/04/05 06:47:36;;;;;;;18.48;12.85;;;;;;;0.04;100.00;102177.56;5237427;28;20035;-67
2023/04/05 06:50:08;;;;;;;22.80;14.10;;;;;;;0.11;100.00;102180.13;5234292;28;20036;-67
2023/04/05 06:52:40;;;;;;;20.75;13.68;;;;;;;0.21;100.00;102174.75;5230425;28;20072;-67
2023/04/05 06:55:11;;;;;;;19.05;11.88;;;;;;;0.27;100.00;102172.94;5223899;28;20109;-67
2023/04/05 06:57:42;;;;;;;21.27;13.40;;;;;;;0.44;100.00;102185.88;5227424;28;20712;-67
2023/04/05 07:00:16;;;;;;;20.70;13.32;;;;;;;0.52;100.00;102186.63;5236000;28;20543;-68
2023/04/05 07:02:47;;;;;;;22.55;14.38;;;;;;;0.56;100.00;102182.22;5235260;28;20507;-68
2023/04/05 07:05:18;;;;;;;19.02;12.70;;;;;;;0.62;100.00;102187.38;5232267;28;20153;-68
2023/04/05 07:07:50;;;;;;;19.65;13.15;;;;;;;0.62;100.00;102191.78;5233072;28;20398;-68
2023/04/05 07:10:21;;;;;;;23.48;14.02;;;;;;;0.70;100.00;102187.28;5231627;28;20476;-68
2023/04/05 07:12:53;;;;;;;23.83;14.23;;;;;;;0.80;100.00;102188.88;5230768;28;20029;-68
2023/04/05 07:15:24;;;;;;;24.17;13.85;;;;;;;0.87;100.00;102187.91;5239473;28;20033;-67
2023/04/05 07:17:56;;;;;;;19.70;13.15;;;;;;;0.97;100.00;102186.88;5231987;28;20472;-67
2023/04/05 07:20:27;;;;;;;24.52;13.75;;;;;;;1.18;100.00;102184.81;5233338;28;20033;-68
2023/04/05 07:22:58;;;;;;;24.08;13.55;;;;;;;1.20;100.00;102180.41;5234394;28;20021;-68
2023/04/05 07:25:30;;;;;;;22.15;13.32;;;;;;;1.29;100.00;102185.50;5232598;28;20163;-68
2023/04/05 07:28:02;;;;;;;24.52;13.27;;;;;;;1.43;100.00;102182.66;5225996;28;20025;-68
2023/04/05 07:30:35;;;;;;;23.65;13.18;;;;;;;1.60;100.00;102185.00;5227947;28;20040;-68
2023/04/05 07:33:06;;;;;;;25.55;13.38;;;;;;;1.60;100.00;102184.13;5226113;28;20106;-68
2023/04/05 07:35:37;;;;;;;21.55;11.95;;;;;;;1.73;100.00;102183.03;5231600;28;20403;-68
2023/04/05 07:38:10;;;;;;;18.63;11.82;;;;;;;1.84;100.00;102180.16;5230885;28;20017;-68
2023/04/05 07:40:41;;;;;;;22.27;11.68;;;;;;;1.77;100.00;102174.16;5226333;28;20025;-68
2023/04/05 07:43:12;;;;;;;22.23;11.80;;;;;;;2.03;100.00;102175.44;5230279;28;20078;-67
2023/04/05 07:45:44;;;;;;;19.23;11.77;;;;;;;2.12;100.00;102170.00;5227251;28;20042;-68
2023/04/05 07:48:15;;;;;;;20.05;11.30;;;;;;;2.27;100.00;102182.84;5223689;28;20026;-67
2023/04/05 07:50:48;;;;;;;16.42;11.05;;;;;;;2.24;100.00;102176.78;5234983;28;20025;-68
2023/04/05 07:53:20;;;;;;;17.52;11.10;;;;;;;2.57;100.00;102174.31;5228773;28;20025;-68
2023/04/05 07:55:52;;;;;;;19.55;12.30;;;;;;;2.60;100.00;102180.41;5225686;28;20036;-68
2023/04/05 07:58:29;;;;;;;18.70;10.98;;;;;;;2.77;100.00;102171.28;5243136;28;20030;-68
2023/04/05 08:01:02;;;;;;;19.35;10.65;;;;;;;2.87;100.00;102167.50;5231040;28;20050;-68
2023/04/05 08:03:34;;;;;;;20.50;11.77;;;;;;;2.83;100.00;102179.03;5232025;28;20456;-68
2023/04/05 08:06:16;;;;;;;16.02;10.55;;;;;;;2.97;100.00;102166.38;5232265;28;20026;-68
2023/04/05 08:08:47;;;;;;;18.67;10.15;;;;;;;3.04;100.00;102169.75;5232182;28;20029;-68
2023/04/05 08:11:20;;;;;;;14.23;9.00;;;;;;;3.28;100.00;102158.63;5231643;28;20029;-68
2023/04/05 08:13:53;;;;;;;13.75;7.80;;;;;;;3.36;100.00;102166.34;5234068;28;20122;-68
2023/04/05 08:16:24;;;;;;;15.80;7.95;;;;;;;3.64;100.00;102169.13;5239496;28;20057;-67
2023/04/05 08:18:56;;;;;;;13.90;8.20;;;;;;;3.80;100.00;102172.25;5231941;28;20447;-67
2023/04/05 08:21:27;;;;;;;10.98;7.00;;;;;;;3.73;100.00;102168.03;5226847;28;20091;-68
2023/04/05 08:23:59;;;;;;;12.48;6.97;;;;;;;3.90;100.00;102170.22;5228272;28;20033;-68
2023/04/05 08:26:30;;;;;;;13.48;6.95;;;;;;;4.10;100.00;102173.19;5228835;28;20021;-67
2023/04/05 08:29:02;;;;;;;17.27;8.48;;;;;;;4.23;100.00;102168.41;5233535;28;20434;-68
2023/04/05 08:31:33;;;;;;;10.77;6.30;;;;;;;4.30;100.00;102162.03;5238936;28;20460;-68
2023/04/05 08:34:07;;;;;;;10.73;6.18;;;;;;;4.43;100.00;102165.19;5233519;28;20523;-67
2023/04/05 08:36:38;;;;;;;10.48;5.90;;;;;;;4.64;100.00;102163.69;5226635;28;20029;-67
2023/04/05 08:39:10;;;;;;;11.93;6.82;;;;;;;4.89;100.00;102158.50;5230978;28;20036;-68
2023/04/05 08:41:49;;;;;;;12.43;7.00;;;;;;;4.99;100.00;102164.34;5220851;28;20112;-67
2023/04/05 08:44:21;;;;;;;11.35;6.78;;;;;;;5.06;100.00;102165.00;5234715;28;20036;-68
2023/04/05 08:46:55;;;;;;;11.77;6.65;;;;;;;5.24;100.00;102164.41;5235253;28;20380;-67
2023/04/05 08:49:26;;;;;;;13.25;6.97;;;;;;;5.38;100.00;102168.41;5233070;28;20136;-67
2023/04/05 08:51:59;;;;;;;11.32;6.95;;;;;;;5.50;100.00;102160.03;5234090;28;20536;-67
2023/04/05 08:54:31;;;;;;;11.52;6.57;;;;;;;5.52;100.00;102160.84;5229759;28;20047;-67
2023/04/05 08:57:06;;;;;;;10.48;6.38;;;;;;;5.68;100.00;102159.41;5229784;28;20030;-68
2023/04/05 08:59:40;;;;;;;12.77;7.30;;;;;;;5.82;100.00;102168.66;5221326;28;20037;-67
2023/04/05 09:02:17;;;;;;;17.90;7.80;;;;;;;5.88;100.00;102166.63;5244402;28;20483;-67
2023/04/05 09:04:50;;;;;;;10.82;7.18;;;;;;;5.89;100.00;102152.47;5231247;28;20090;-68
2023/04/05 09:07:22;;;;;;;10.00;6.25;;;;;;;6.05;100.00;102155.47;5229655;28;20090;-67
2023/04/05 09:09:58;;;;;;;12.80;6.95;;;;;;;6.11;100.00;102154.38;5217080;28;20037;-67
2023/04/05 09:12:29;;;;;;;11.07;7.10;;;;;;;6.28;100.00;102143.16;5229159;28;20035;-67
2023/04/05 09:15:01;;;;;;;13.75;7.25;;;;;;;6.17;100.00;102145.34;5234736;28;20029;-67
2023/04/05 09:17:33;;;;;;;11.50;7.20;;;;;;;6.19;100.00;102152.31;5230969;28;20480;-67
2023/04/05 09:20:05;;;;;;;12.20;6.70;;;;;;;6.35;100.00;102147.31;5223819;28;20038;-67
2023/04/05 09:22:46;;;;;;;13.63;7.88;;;;;;;6.50;100.00;102137.91;5227915;28;20025;-67
2023/04/05 09:25:34;;;;;;;13.52;6.57;;;;;;;6.64;100.00;102138.22;5219867;28;20040;-67
2023/04/05 09:28:06;;;;;;;13.88;7.22;;;;;;;6.75;100.00;102145.78;5229123;28;20080;-67
2023/04/05 09:30:37;;;;;;;13.10;7.50;;;;;;;6.78;100.00;102137.69;5244178;28;20575;-67
2023/04/05 09:33:09;;;;;;;11.82;7.32;;;;;;;6.61;100.00;102135.69;5238301;28;20033;-67
2023/04/05 09:35:41;;;;;;;13.98;7.38;;;;;;;6.79;100.00;102139.41;5236525;28;20037;-67
2023/04/05 09:38:12;;;;;;;9.70;5.95;;;;;;;6.89;100.00;102139.91;5235936;28;20428;-67
2023/04/05 09:40:45;;;;;;;10.13;5.85;;;;;;;7.00;100.00;102136.81;5238781;28;20029;-68
2023/04/05 09:43:36;;;;;;;9.93;6.28;;;;;;;7.06;100.00;102137.44;5225757;28;20021;-67
2023/04/05 09:46:29;;;;;;;10.77;6.68;;;;;;;7.11;100.00;102139.88;5238223;28;20032;-67
2023/04/05 09:49:00;;;;;;;11.80;6.57;;;;;;;7.19;100.00;102131.59;5237375;28;20048;-68
2023/04/05 09:51:34;;;;;;;10.40;6.82;;;;;;;7.16;100.00;102134.41;5231416;28;20026;-67
2023/04/05 09:54:09;;;;;;;11.43;7.17;;;;;;;7.12;100.00;102132.81;5246581;28;20032;-67
2023/04/05 09:56:53;;;;;;;9.65;7.43;;;;;;;7.19;100.00;102131.59;5224523;28;20041;-67
2023/04/05 09:59:26;;;;;;;11.68;7.45;;;;;;;7.26;100.00;102133.94;5226917;28;20388;-67
2023/04/05 10:01:57;;;;;;;11.57;7.20;;;;;;;7.36;100.00;102130.91;5232483;28;20054;-67
2023/04/05 10:04:40;;;;;;;11.85;7.70;;;;;;;7.41;100.00;102121.81;5233820;28;20471;-68
2023/04/05 10:07:13;;;;;;;12.35;7.13;;;;;;;7.62;100.00;102122.69;5234547;28;20122;-67
2023/04/05 10:09:46;;;;;;;13.93;6.95;;;;;;;7.47;100.00;102118.03;5238727;28;20033;-67
2023/04/05 10:12:27;;;;;;;10.88;6.80;;;;;;;7.59;100.00;102120.19;5231037;28;20021;-67
2023/04/05 10:14:59;;;;;;;10.63;7.07;;;;;;;7.68;100.00;102118.91;5233004;28;20376;-67
2023/04/05 10:17:38;;;;;;;14.43;7.10;;;;;;;7.62;100.00;102111.22;5234319;28;20021;-67
2023/04/05 10:20:19;;;;;;;12.48;6.63;;;;;;;7.71;100.00;102117.91;5233739;28;20030;-67
2023/04/05 10:22:56;;;;;;;12.48;6.65;;;;;;;7.73;89.76;102111.59;5228228;28;20101;-67
2023/04/05 10:25:54;;;;;;;10.32;6.22;;;;;;;7.79;92.39;102111.31;5230785;28;20060;-67
2023/04/05 10:28:34;;;;;;;12.32;6.47;;;;;;;7.73;90.18;102098.31;5228076;28;20116;-67
2023/04/05 10:31:27;;;;;;;15.13;6.85;;;;;;;7.76;98.14;102098.16;5230126;28;20041;-67
2023/04/05 10:34:07;;;;;;;15.25;8.52;;;;;;;7.81;95.56;102090.84;5229594;28;20025;-67
2023/04/05 10:36:46;;;;;;;14.73;7.72;;;;;;;7.95;94.63;102100.00;5221493;28;20049;-67
2023/04/05 10:39:28;;;;;;;8.98;6.88;;;;;;;7.95;90.25;102092.88;5228162;28;20399;-67
2023/04/05 10:42:09;;;;;;;10.88;7.65;;;;;;;7.91;94.02;102088.66;5226411;28;20435;-67
2023/04/05 10:44:44;;;;;;;10.40;7.00;;;;;;;8.02;91.90;102091.69;5232918;28;20543;-67
2023/04/05 10:47:18;;;;;;;11.38;7.32;;;;;;;8.18;84.55;102094.50;5232456;28;20575;-67
2023/04/05 10:49:55;;;;;;;10.63;7.55;;;;;;;8.19;83.75;102098.03;5226755;28;20033;-68
2023/04/05 10:52:27;;;;;;;11.88;7.80;;;;;;;8.21;81.79;102088.19;5229230;28;20048;-67
2023/04/05 10:55:01;;;;;;;12.07;7.22;;;;;;;8.25;79.60;102095.09;5231435;28;20025;-67
2023/04/05 10:57:34;;;;;;;12.18;7.18;;;;;;;8.42;84.50;102084.53;5231671;28;20031;-67
2023/04/05 11:00:06;;;;;;;9.93;7.03;;;;;;;8.16;89.07;102084.88;5236419;28;20226;-67
2023/04/05 11:02:38;;;;;;;11.02;7.50;;;;;;;8.26;82.83;102078.19;5229800;28;20096;-67
2023/04/05 11:05:36;;;;;;;10.20;7.18;;;;;;;8.30;84.90;102063.81;5232234;28;20120;-67
2023/04/05 11:08:10;;;;;;;15.15;7.88;;;;;;;8.37;81.15;102067.91;5228869;28;20029;-67
2023/04/05 11:10:42;;;;;;;13.43;8.15;;;;;;;8.46;81.16;102065.75;5233116;28;20049;-67
2023/04/05 11:13:13;;;;;;;11.20;7.68;;;;;;;8.47;87.95;102064.84;5229717;28;20029;-67
2023/04/05 11:15:45;;;;;;;13.27;7.80;;;;;;;8.40;88.59;102067.75;5228177;28;20555;-68
2023/04/05 11:18:16;;;;;;;12.77;8.00;;;;;;;8.35;90.66;102060.94;5231425;28;21379;-67
2023/04/05 11:20:54;;;;;;;13.18;7.80;;;;;;;8.38;86.75;102064.31;5229015;28;20365;-67
2023/04/05 11:23:26;;;;;;;10.30;7.13;;;;;;;8.29;78.14;102062.09;5225753;28;20124;-67
2023/04/05 11:26:05;;;;;;;13.20;7.43;;;;;;;8.37;81.79;102059.91;5227568;28;20072;-67
2023/04/05 11:28:40;;;;;;;12.40;7.50;;;;;;;8.47;81.48;102055.06;5221377;28;20045;-67
2023/04/05 11:31:18;;;;;;;11.18;7.38;;;;;;;8.56;76.91;102057.28;5229087;28;20108;-67
2023/04/05 11:33:53;;;;;;;12.48;7.20;;;;;;;8.64;84.27;102048.91;5223797;28;20112;-67
2023/04/05 11:36:34;;;;;;;13.55;7.10;;;;;;;8.77;80.14;102044.72;5226729;28;20032;-67
2023/04/05 11:39:24;;;;;;;12.35;7.50;;;;;;;8.69;81.49;102052.22;5227548;28;20041;-67
2023/04/05 11:41:59;;;;;;;15.32;8.38;;;;;;;8.70;77.04;102045.94;5230160;28;20041;-67